MMQT

Details ICAO MMQT (QRO)
Name QUERETARO INTERCONTINENTAL
Region Mexico
Timezone America/Mexico_City (UTC-5.0)
Plans Departing 73
Arriving 54
Stats Elevation 6,296 ft / 1,919 m (AMSL)
Location 20.617289° -100.185657°
Runways 1
Magnetic Variation 5.027° E
Sunrise 2018-05-22 12:02:48 UTC / 2018-05-22 07:02:48 Local
Sunset 2018-05-23 01:14:55 UTC / 2018-05-22 20:14:55 Local
Advertisement - Login to hide

Runways

ID Width Length Bearing (true) Bearing (mag) Surface Threshold Offset Overrun Length
09 148 ft / 45 m 11,442 ft / 3,488 m 100.86° 95.83° Concrete 0 ft / 0 m 1,135 ft / 346 m
27 148 ft / 45 m 11,442 ft / 3,488 m 280.87° 275.84° Concrete 0 ft / 0 m 1,135 ft / 346 m

Map

Weather


0- 5 10 15 20 25 30 35+ Temperature / ° C

Clouds and Precipitation
Forecast for 2018-05-22 12:00 UTC. Updated 44 minutes ago

Ground ~20,000 ft ~40,000 ft Winds

METAR

MMQT 221146Z 00000KT 4SM SCT120 BKN250 12/09 A3024 RMK 8/032 HZY

TAF

Not found

Frequencies

Tower 118.95 MHz TWR
Warning: Do not use this data for real-world aviation or navigation. No guarantee of current accuracy is given.